Time;durP1;ratioP1;P1;durP2;ratioP2;P2;SDS_P1;SDS_P2;PMS_P1;PMS_P2;Temp;Humidity;BMP_temperature;BMP_pressure;BME280_temperature;BME280_humidity;BME280_pressure;Samples;Min_cycle;Max_cycle;Signal;HPM_P1;HPM_P2
2022/06/14 00:00:54;;;;;;;14.80;4.00;;;17.70;51.60;;;;;;5051258;28;20663;-93
2022/06/14 00:03:21;;;;;;;9.20;3.43;;;17.70;51.70;;;;;;5037920;28;20250;-93
2022/06/14 00:05:49;;;;;;;19.63;5.57;;;17.70;51.40;;;;;;5045887;28;20290;-93
2022/06/14 00:08:19;;;;;;;17.70;4.87;;;17.70;51.30;;;;;;5050793;28;20233;-93
2022/06/14 00:10:48;;;;;;;17.60;4.37;;;17.70;51.70;;;;;;5051921;28;20210;-92
2022/06/14 00:13:17;;;;;;;10.13;3.40;;;17.60;51.80;;;;;;5045144;28;20640;-92
2022/06/14 00:15:47;;;;;;;18.33;4.97;;;17.60;52.00;;;;;;5036588;28;20314;-94
2022/06/14 00:18:14;;;;;;;9.70;3.60;;;17.60;52.00;;;;;;5052642;28;20310;-92
2022/06/14 00:20:43;;;;;;;18.93;5.13;;;17.50;52.00;;;;;;5050668;28;20259;-93
2022/06/14 00:23:11;;;;;;;8.17;3.30;;;17.50;52.00;;;;;;5052569;28;20203;-92
2022/06/14 00:25:42;;;;;;;10.70;4.10;;;17.50;52.10;;;;;;5049584;28;20207;-92
2022/06/14 00:28:13;;;;;;;15.83;4.97;;;17.50;52.40;;;;;;5032303;28;20234;-92
2022/06/14 00:30:43;;;;;;;15.43;4.60;;;17.40;52.30;;;;;;5032708;28;21938;-92
2022/06/14 00:33:13;;;;;;;28.30;7.33;;;17.40;52.50;;;;;;5031673;28;20208;-93
2022/06/14 00:35:42;;;;;;;15.03;4.63;;;17.40;52.30;;;;;;5049504;28;20226;-93
2022/06/14 00:38:11;;;;;;;15.40;4.17;;;17.30;52.50;;;;;;5051269;28;20223;-93
2022/06/14 00:40:51;;;;;;;9.50;3.17;;;17.30;53.00;;;;;;5032310;28;20205;-93
2022/06/14 00:43:22;;;;;;;16.33;5.00;;;17.30;52.70;;;;;;5033611;28;20205;-93
2022/06/14 00:46:15;;;;;;;11.13;3.83;;;17.20;52.60;;;;;;5052030;28;20983;-93
2022/06/14 00:48:48;;;;;;;13.13;4.83;;;17.20;53.30;;;;;;5048524;28;20218;-93
2022/06/14 00:51:20;;;;;;;9.53;3.80;;;17.20;52.80;;;;;;5032095;28;20214;-93
2022/06/14 00:53:54;;;;;;;12.63;3.73;;;17.20;53.10;;;;;;5045168;28;20955;-93
2022/06/14 00:56:31;;;;;;;12.40;4.33;;;17.20;53.40;;;;;;5051482;28;20206;-93
2022/06/14 00:59:03;;;;;;;14.30;4.37;;;17.10;53.30;;;;;;5045741;28;20546;-93
2022/06/14 01:01:36;;;;;;;9.37;3.17;;;17.00;53.10;;;;;;5048656;28;20631;-92
2022/06/14 01:04:07;;;;;;;13.00;4.40;;;17.00;53.20;;;;;;5030532;28;20642;-93
2022/06/14 01:06:43;;;;;;;11.50;3.60;;;17.00;53.10;;;;;;5042388;28;20262;-91
2022/06/14 01:09:14;;;;;;;11.20;3.60;;;16.90;53.10;;;;;;5065259;28;20199;-93
2022/06/14 01:11:46;;;;;;;11.83;4.17;;;16.90;53.20;;;;;;5061955;28;20248;-93
2022/06/14 01:14:18;;;;;;;17.03;4.77;;;16.90;53.30;;;;;;5061453;28;20290;-92
2022/06/14 01:16:47;;;;;;;12.43;3.97;;;16.90;53.40;;;;;;5053567;28;20200;-92
2022/06/14 01:19:21;;;;;;;12.40;4.20;;;16.80;53.50;;;;;;5052661;28;20229;-93
2022/06/14 01:22:30;;;;;;;10.50;3.77;;;16.80;53.80;;;;;;5052633;28;20262;-92
2022/06/14 01:24:58;;;;;;;10.90;4.10;;;16.80;54.40;;;;;;5049921;28;20208;-92
2022/06/14 01:27:27;;;;;;;11.90;4.07;;;16.70;53.50;;;;;;5053032;28;20319;-93
2022/06/14 01:30:06;;;;;;;12.27;4.63;;;16.70;53.80;;;;;;5037669;28;20662;-92
2022/06/14 01:32:45;;;;;;;9.37;4.13;;;16.70;54.40;;;;;;5036087;28;20218;-92
2022/06/14 01:35:17;;;;;;;11.37;4.40;;;16.60;54.40;;;;;;5058702;28;20212;-91
2022/06/14 01:37:50;;;;;;;13.73;4.40;;;16.60;54.10;;;;;;5067125;28;20224;-91
2022/06/14 01:40:18;;;;;;;11.33;4.17;;;16.60;54.40;;;;;;5065376;28;20229;-92
2022/06/14 01:43:04;;;;;;;10.60;4.07;;;16.60;54.30;;;;;;5067578;28;20216;-92
2022/06/14 01:45:40;;;;;;;9.50;4.07;;;16.50;54.60;;;;;;5054666;28;20232;-92
2022/06/14 01:48:19;;;;;;;11.60;3.67;;;16.50;54.50;;;;;;5055216;28;20236;-92
2022/06/14 01:53:49;;;;;;;16.00;5.37;;;16.40;54.70;;;;;;5065038;28;20255;-92
2022/06/14 01:56:22;;;;;;;7.20;3.03;;;16.40;54.90;;;;;;5046761;28;20218;-93
2022/06/14 01:59:01;;;;;;;9.27;3.87;;;16.40;54.90;;;;;;5049355;28;20214;-91
2022/06/14 02:01:33;;;;;;;8.80;3.50;;;16.30;54.90;;;;;;5032120;28;20224;-92
2022/06/14 02:07:02;;;;;;;10.30;4.47;;;16.20;54.60;;;;;;5031729;28;20383;-92
2022/06/14 02:09:37;;;;;;;10.67;4.47;;;16.20;54.60;;;;;;5044951;28;20209;-92
2022/06/14 02:12:11;;;;;;;9.90;4.03;;;16.20;54.70;;;;;;5047028;28;20208;-93
2022/06/14 02:14:49;;;;;;;13.77;5.03;;;16.20;54.70;;;;;;5032441;28;20212;-93
2022/06/14 02:17:25;;;;;;;17.83;6.17;;;16.10;55.00;;;;;;5047065;28;20267;-93
2022/06/14 02:19:59;;;;;;;11.13;4.20;;;16.10;55.10;;;;;;5048883;28;20208;-93
2022/06/14 02:22:34;;;;;;;13.23;5.00;;;16.10;55.20;;;;;;5047980;28;20199;-93
2022/06/14 02:25:11;;;;;;;13.03;4.93;;;16.10;55.00;;;;;;5031109;28;20266;-93
2022/06/14 02:27:43;;;;;;;12.03;4.93;;;16.00;55.10;;;;;;5037837;28;20309;-92
2022/06/14 02:30:15;;;;;;;5.53;3.23;;;16.00;54.90;;;;;;5051318;28;20248;-93
2022/06/14 02:32:48;;;;;;;13.30;5.30;;;16.00;55.00;;;;;;5050468;28;20203;-91
2022/06/14 02:35:21;;;;;;;10.30;4.30;;;15.90;55.10;;;;;;5050582;28;20224;-91
2022/06/14 02:37:59;;;;;;;7.17;3.43;;;15.90;55.20;;;;;;5050042;28;20223;-92
2022/06/14 02:40:34;;;;;;;16.07;5.37;;;15.90;55.50;;;;;;5049611;28;20209;-92
2022/06/14 02:43:08;;;;;;;11.67;4.63;;;15.80;55.50;;;;;;5048435;28;20205;-92
2022/06/14 02:45:40;;;;;;;12.00;4.83;;;15.70;55.30;;;;;;5049344;28;20209;-92
2022/06/14 02:48:12;;;;;;;11.87;3.80;;;15.70;55.20;;;;;;5048881;28;20903;-93
2022/06/14 02:50:47;;;;;;;13.07;4.63;;;15.70;55.20;;;;;;5038714;28;20209;-92
2022/06/14 02:53:22;;;;;;;7.13;3.50;;;15.70;55.70;;;;;;5031307;28;20207;-92
2022/06/14 02:55:57;;;;;;;10.23;3.80;;;15.60;56.00;;;;;;5034095;28;20677;-92
2022/06/14 02:58:30;;;;;;;10.47;4.50;;;15.60;55.80;;;;;;5050289;28;20211;-92
2022/06/14 03:01:02;;;;;;;8.73;4.17;;;15.60;55.80;;;;;;5038006;28;20304;-91
2022/06/14 03:03:38;;;;;;;13.87;5.20;;;15.60;55.70;;;;;;5030725;28;20196;-91
2022/06/14 03:06:13;;;;;;;14.77;5.20;;;15.60;55.80;;;;;;5031420;28;20262;-92
2022/06/14 03:08:48;;;;;;;15.33;5.47;;;15.50;56.10;;;;;;5049819;28;20289;-92
2022/06/14 03:11:25;;;;;;;20.57;7.40;;;15.50;56.40;;;;;;5047816;28;20212;-93
2022/06/14 03:14:00;;;;;;;8.23;4.30;;;15.50;56.40;;;;;;5051132;28;20673;-92
2022/06/14 03:16:34;;;;;;;10.17;4.53;;;15.50;56.70;;;;;;5038543;28;20220;-93
2022/06/14 03:19:08;;;;;;;9.53;4.70;;;15.50;56.80;;;;;;5040192;28;20559;-92
2022/06/14 03:21:55;;;;;;;9.47;4.33;;;15.40;57.30;;;;;;5051076;28;20244;-92
2022/06/14 03:24:33;;;;;;;8.73;4.50;;;15.40;57.30;;;;;;5048026;28;20206;-92
2022/06/14 03:27:15;;;;;;;7.40;4.50;;;15.40;57.00;;;;;;5050788;28;20452;-93
2022/06/14 03:29:51;;;;;;;13.17;5.33;;;15.40;57.20;;;;;;5046999;28;20292;-92
2022/06/14 03:32:34;;;;;;;10.43;4.97;;;15.30;57.10;;;;;;5052823;28;20213;-92
2022/06/14 03:35:11;;;;;;;13.63;5.30;;;15.30;57.70;;;;;;5035837;28;20249;-93
2022/06/14 03:37:39;;;;;;;11.80;4.73;;;15.30;57.10;;;;;;5053767;28;20721;-92
2022/06/14 03:40:17;;;;;;;12.67;5.57;;;15.20;57.00;;;;;;5054238;28;20194;-92
2022/06/14 03:42:47;;;;;;;9.50;5.00;;;15.30;57.80;;;;;;5052387;28;20197;-92
2022/06/14 03:45:20;;;;;;;10.07;4.77;;;15.20;57.50;;;;;;5053911;28;20200;-91
2022/06/14 03:47:51;;;;;;;10.97;4.43;;;15.20;57.50;;;;;;5052718;28;20247;-92
2022/06/14 03:50:24;;;;;;;9.60;4.10;;;15.20;57.40;;;;;;5053921;28;20299;-91
2022/06/14 03:53:22;;;;;;;7.73;3.77;;;15.10;57.50;;;;;;5049666;28;20198;-93
2022/06/14 03:56:03;;;;;;;8.00;4.17;;;15.10;57.70;;;;;;5036236;28;20224;-92
2022/06/14 03:58:43;;;;;;;7.60;4.43;;;15.10;57.20;;;;;;5043313;28;20586;-92
2022/06/14 04:01:20;;;;;;;15.90;6.23;;;15.10;57.30;;;;;;5053410;28;20226;-92
2022/06/14 04:04:27;;;;;;;11.10;4.23;;;15.10;57.20;;;;;;5054367;28;20204;-91
2022/06/14 04:07:11;;;;;;;8.70;3.90;;;15.10;57.50;;;;;;5041980;28;20211;-92
2022/06/14 04:09:55;;;;;;;11.07;4.93;;;15.10;57.60;;;;;;5054973;28;20235;-92
2022/06/14 04:12:29;;;;;;;11.80;5.33;;;15.00;57.30;;;;;;5056029;28;20202;-91
2022/06/14 04:15:14;;;;;;;15.20;5.10;;;15.00;57.50;;;;;;5033849;28;20200;-92
2022/06/14 04:17:49;;;;;;;16.13;6.07;;;15.00;58.20;;;;;;5046087;28;20250;-92
2022/06/14 04:20:22;;;;;;;13.10;5.80;;;15.00;58.10;;;;;;5050390;28;20300;-92
2022/06/14 04:23:10;;;;;;;13.20;5.40;;;15.00;58.10;;;;;;5046000;28;20319;-91
2022/06/14 04:25:55;;;;;;;9.87;4.80;;;15.00;58.70;;;;;;5042262;28;20219;-92
2022/06/14 04:28:30;;;;;;;11.67;4.90;;;14.90;58.50;;;;;;5045093;28;20223;-93
2022/06/14 04:31:12;;;;;;;10.23;4.87;;;15.00;58.50;;;;;;5053504;28;20641;-92
2022/06/14 04:33:54;;;;;;;14.10;5.70;;;14.90;58.80;;;;;;5051153;28;20204;-92
2022/06/14 04:36:26;;;;;;;17.03;6.40;;;15.00;58.80;;;;;;5050532;28;20210;-92
2022/06/14 04:41:36;;;;;;;19.37;6.90;;;15.00;58.70;;;;;;5108578;22;20325;-93
2022/06/14 04:44:13;;;;;;;12.60;5.03;;;15.00;58.20;;;;;;5109064;28;21064;-92
2022/06/14 04:46:47;;;;;;;10.47;5.00;;;15.00;58.60;;;;;;5097947;28;20267;-93
2022/06/14 04:49:19;;;;;;;17.07;6.33;;;15.00;58.40;;;;;;5083990;28;20226;-92
2022/06/14 04:52:06;;;;;;;7.43;4.33;;;15.00;58.30;;;;;;5094002;28;20200;-93
2022/06/14 04:54:47;;;;;;;10.03;5.13;;;15.00;58.90;;;;;;5085357;28;20306;-93
2022/06/14 04:57:21;;;;;;;5.70;3.97;;;15.10;59.10;;;;;;5087976;28;20198;-92
2022/06/14 05:00:18;;;;;;;9.27;4.80;;;15.10;59.10;;;;;;5093510;28;20212;-91
2022/06/14 05:02:52;;;;;;;16.03;6.37;;;15.10;58.90;;;;;;5088374;28;20202;-93
2022/06/14 05:05:32;;;;;;;6.93;3.77;;;15.10;58.60;;;;;;5093286;28;20351;-92
2022/06/14 05:08:05;;;;;;;17.80;6.80;;;15.20;58.90;;;;;;5105108;28;20252;-93
2022/06/14 05:11:01;;;;;;;17.23;5.70;;;15.20;58.60;;;;;;5113114;28;20199;-93
2022/06/14 05:13:43;;;;;;;12.33;5.47;;;15.20;59.00;;;;;;5107752;28;20206;-93
2022/06/14 05:19:15;;;;;;;9.80;4.87;;;15.30;58.90;;;;;;5071651;28;20201;-93
2022/06/14 05:21:49;;;;;;;16.50;6.60;;;15.30;58.60;;;;;;5091787;28;20194;-91
2022/06/14 05:24:17;;;;;;;11.43;4.23;;;15.30;58.80;;;;;;5089323;28;20203;-92
2022/06/14 05:27:07;;;;;;;14.93;5.97;;;15.40;58.70;;;;;;5090817;28;20223;-92
2022/06/14 05:29:42;;;;;;;14.17;5.73;;;15.40;59.30;;;;;;5089103;28;20284;-92
2022/06/14 05:32:16;;;;;;;10.53;4.93;;;15.40;58.90;;;;;;5090693;28;20203;-91
2022/06/14 05:35:00;;;;;;;11.33;5.27;;;15.40;58.90;;;;;;5077813;28;20293;-91
2022/06/14 05:37:46;;;;;;;20.97;6.27;;;15.50;59.30;;;;;;5071649;28;20199;-90
2022/06/14 05:40:18;;;;;;;13.13;6.00;;;15.50;59.10;;;;;;5052665;28;20212;-91
2022/06/14 05:42:52;;;;;;;19.00;7.53;;;15.50;58.90;;;;;;5067909;28;20200;-92
2022/06/14 05:45:23;;;;;;;14.43;5.90;;;15.60;59.00;;;;;;5050430;28;20856;-91
2022/06/14 05:47:56;;;;;;;14.07;5.93;;;15.60;58.80;;;;;;5068258;28;20235;-92
2022/06/14 05:50:29;;;;;;;21.10;7.20;;;15.60;59.00;;;;;;5066557;28;20256;-91
2022/06/14 05:53:05;;;;;;;16.03;7.20;;;15.70;59.00;;;;;;5068902;28;20629;-91
2022/06/14 05:55:38;;;;;;;16.17;7.03;;;15.70;59.00;;;;;;5067573;28;20207;-90
2022/06/14 05:58:11;;;;;;;18.63;7.50;;;15.80;59.20;;;;;;5069421;28;20195;-91
2022/06/14 06:00:46;;;;;;;13.07;7.10;;;15.80;59.20;;;;;;5067228;28;20264;-91
2022/06/14 06:03:21;;;;;;;16.73;7.37;;;15.90;59.20;;;;;;5069179;28;21017;-91
2022/06/14 06:05:54;;;;;;;19.93;8.33;;;15.90;59.30;;;;;;5066902;28;20258;-91
2022/06/14 06:08:27;;;;;;;19.80;7.43;;;16.00;59.30;;;;;;5062399;28;20248;-91
2022/06/14 06:10:59;;;;;;;23.60;8.53;;;16.00;59.50;;;;;;5064146;28;20570;-91
2022/06/14 06:13:31;;;;;;;17.33;7.37;;;16.10;59.40;;;;;;5057486;28;20582;-92
2022/06/14 06:16:03;;;;;;;16.73;7.97;;;16.20;59.60;;;;;;5055377;28;20964;-91
2022/06/14 06:18:36;;;;;;;17.87;7.43;;;16.30;60.30;;;;;;5057536;28;20208;-93
2022/06/14 06:21:12;;;;;;;14.43;6.37;;;16.30;59.70;;;;;;5057754;28;20205;-92
2022/06/14 06:23:45;;;;;;;15.60;7.07;;;16.40;59.70;;;;;;5066247;28;20208;-94
2022/06/14 06:26:14;;;;;;;11.07;5.33;;;16.50;59.80;;;;;;5071775;28;20192;-94
2022/06/14 06:28:47;;;;;;;14.63;6.70;;;16.60;59.70;;;;;;5070218;28;20230;-94
2022/06/14 06:31:21;;;;;;;17.40;7.07;;;16.60;59.50;;;;;;5070259;28;20237;-92
2022/06/14 06:33:50;;;;;;;19.40;7.33;;;16.70;59.50;;;;;;5066750;28;20222;-95
2022/06/14 06:36:34;;;;;;;18.57;7.17;;;16.80;59.10;;;;;;5069694;28;20570;-94
2022/06/14 06:39:14;;;;;;;13.53;5.53;;;16.90;59.30;;;;;;5068636;28;20619;-92
2022/06/14 06:41:54;;;;;;;15.37;6.50;;;17.00;59.20;;;;;;5069013;28;20279;-94
2022/06/14 06:44:32;;;;;;;15.93;6.10;;;17.10;59.00;;;;;;5068482;28;20203;-94
2022/06/14 06:47:10;;;;;;;16.60;6.47;;;17.20;59.20;;;;;;5068274;28;20263;-93
2022/06/14 06:50:08;;;;;;;10.83;5.57;;;17.30;59.00;;;;;;5070450;28;20316;-94
2022/06/14 06:52:46;;;;;;;19.47;6.77;;;17.40;59.10;;;;;;5070791;28;20593;-95
2022/06/14 06:55:20;;;;;;;14.53;5.67;;;17.50;58.70;;;;;;5058906;28;20751;-96
2022/06/14 06:57:51;;;;;;;11.70;5.37;;;17.60;58.40;;;;;;5056796;28;20200;-95
2022/06/14 07:00:20;;;;;;;13.60;5.47;;;17.70;58.10;;;;;;5062583;28;20196;-95
2022/06/14 07:02:58;;;;;;;10.87;4.57;;;17.80;58.10;;;;;;5062378;28;20225;-95
2022/06/14 07:05:25;;;;;;;11.13;4.80;;;17.90;58.00;;;;;;5064552;28;20195;-96
2022/06/14 07:07:59;;;;;;;8.37;4.37;;;18.00;58.00;;;;;;5061194;28;20264;-94
2022/06/14 07:10:38;;;;;;;14.53;6.20;;;18.00;57.70;;;;;;5067110;28;20224;-93
2022/06/14 07:13:58;;;;;;;13.47;5.27;;;18.10;57.70;;;;;;5062659;28;20202;-93
2022/06/14 07:16:31;;;;;;;11.50;4.87;;;18.20;57.60;;;;;;5062507;28;20198;-94
2022/06/14 07:19:15;;;;;;;10.33;4.00;;;18.30;57.30;;;;;;5062739;28;20207;-94
2022/06/14 07:21:55;;;;;;;11.27;4.13;;;18.50;57.00;;;;;;5067154;28;20702;-94
2022/06/14 07:24:30;;;;;;;9.43;3.30;;;18.50;56.80;;;;;;5064011;28;20573;-93
2022/06/14 07:27:04;;;;;;;10.40;3.80;;;18.60;56.50;;;;;;5062503;28;20278;-94
2022/06/14 07:29:41;;;;;;;9.07;3.83;;;18.70;56.00;;;;;;5060128;28;20249;-93
2022/06/14 07:32:19;;;;;;;8.63;3.90;;;18.80;55.60;;;;;;5067771;28;20191;-94
2022/06/14 07:34:49;;;;;;;9.07;3.97;;;18.90;55.60;;;;;;5068941;28;20594;-92
2022/06/14 07:37:24;;;;;;;13.20;5.00;;;18.90;55.50;;;;;;5064141;28;20254;-93
2022/06/14 07:39:57;;;;;;;11.27;4.50;;;19.00;55.50;;;;;;5063254;28;20779;-94
2022/06/14 07:42:36;;;;;;;8.73;3.73;;;19.10;55.10;;;;;;5064950;28;20302;-93
2022/06/14 07:45:08;;;;;;;7.37;3.17;;;19.20;55.00;;;;;;5064133;28;20199;-92
2022/06/14 07:47:44;;;;;;;15.87;5.03;;;19.30;55.10;;;;;;5063596;28;20249;-95
2022/06/14 07:50:16;;;;;;;7.57;3.63;;;19.30;55.00;;;;;;5066252;28;20227;-96
2022/06/14 07:52:49;;;;;;;9.37;4.00;;;19.40;54.90;;;;;;5063515;28;20787;-94
2022/06/14 07:55:23;;;;;;;12.70;5.23;;;19.50;54.40;;;;;;5062323;28;20208;-94
2022/06/14 07:57:58;;;;;;;8.03;3.57;;;19.60;54.30;;;;;;5065005;28;20265;-94
2022/06/14 08:03:24;;;;;;;14.27;5.87;;;19.80;54.00;;;;;;5077317;28;20280;-94
2022/06/14 08:05:54;;;;;;;13.00;4.60;;;19.90;54.00;;;;;;5077504;28;20180;-93
2022/06/14 08:08:25;;;;;;;9.97;4.30;;;19.90;53.90;;;;;;5076257;28;20242;-94
2022/06/14 08:11:01;;;;;;;11.67;4.27;;;20.00;54.00;;;;;;5080317;28;20196;-96
2022/06/14 08:13:44;;;;;;;13.93;5.07;;;20.10;53.90;;;;;;5073417;28;20356;-94
2022/06/14 08:16:12;;;;;;;12.30;4.77;;;20.20;53.20;;;;;;5078124;28;20213;-95
2022/06/14 08:18:45;;;;;;;13.27;4.30;;;20.30;53.80;;;;;;5077979;28;20228;-94
2022/06/14 08:21:23;;;;;;;12.97;3.90;;;20.40;52.80;;;;;;5076080;28;20200;-94
2022/06/14 08:23:56;;;;;;;11.70;4.30;;;20.50;53.00;;;;;;5076827;28;20554;-95
2022/06/14 08:26:31;;;;;;;10.77;4.07;;;20.60;53.00;;;;;;5093514;28;20199;-95
2022/06/14 08:29:23;;;;;;;9.83;3.33;;;20.60;52.70;;;;;;5090123;28;20215;-95
2022/06/14 08:32:05;;;;;;;6.23;2.60;;;20.70;53.00;;;;;;5082283;28;20966;-95
2022/06/14 08:34:38;;;;;;;8.90;3.43;;;20.90;53.40;;;;;;5098275;22;20229;-96
2022/06/14 08:37:15;;;;;;;8.87;3.67;;;21.10;53.00;;;;;;5096417;28;20199;-96
2022/06/14 08:39:49;;;;;;;8.13;3.00;;;21.20;53.10;;;;;;5091562;28;20605;-92
2022/06/14 08:42:31;;;;;;;9.27;3.90;;;21.40;53.20;;;;;;5102194;28;20227;-94
2022/06/14 08:45:03;;;;;;;9.67;3.60;;;21.60;52.80;;;;;;5105737;28;20197;-96
2022/06/14 08:48:01;;;;;;;10.63;4.40;;;21.70;53.00;;;;;;5092697;28;20199;-95
2022/06/14 08:50:56;;;;;;;12.23;4.53;;;22.00;52.30;;;;;;5095559;28;23813;-94
2022/06/14 08:53:54;;;;;;;13.93;5.30;;;22.30;51.90;;;;;;5105853;28;20246;-94
2022/06/14 08:56:41;;;;;;;10.73;4.17;;;22.50;51.80;;;;;;5098461;28;20190;-94
2022/06/14 08:59:45;;;;;;;8.37;3.43;;;22.70;51.60;;;;;;5107340;28;20567;-94
2022/06/14 09:02:48;;;;;;;7.47;3.40;;;23.00;51.00;;;;;;5089639;28;20211;-95
2022/06/14 09:05:42;;;;;;;10.63;4.20;;;23.20;50.20;;;;;;5075920;28;20212;-91
2022/06/14 09:09:00;;;;;;;9.00;3.20;;;23.40;50.70;;;;;;5092320;28;20234;-95
2022/06/14 09:12:07;;;;;;;8.57;3.50;;;23.60;50.10;;;;;;5066603;28;20208;-96
2022/06/14 09:15:12;;;;;;;7.50;3.63;;;23.80;49.10;;;;;;5074001;28;20210;-95
2022/06/14 09:18:00;;;;;;;7.47;2.93;;;24.00;49.30;;;;;;5072460;28;20207;-95
2022/06/14 09:20:42;;;;;;;10.40;4.53;;;24.20;50.00;;;;;;5073505;28;20192;-93
2022/06/14 09:23:19;;;;;;;7.13;3.03;;;24.40;49.30;;;;;;5085446;28;20627;-93
2022/06/14 09:26:26;;;;;;;6.53;3.03;;;24.50;49.50;;;;;;5073478;28;20207;-96
2022/06/14 09:29:26;;;;;;;7.37;3.10;;;24.70;48.20;;;;;;5075385;28;20200;-95
2022/06/14 09:32:07;;;;;;;10.20;3.97;;;24.80;47.60;;;;;;5082116;28;20202;-93
2022/06/14 09:34:59;;;;;;;4.53;2.47;;;24.90;47.80;;;;;;5066337;28;20322;-94
2022/06/14 09:37:53;;;;;;;7.97;3.30;;;25.10;47.40;;;;;;5052687;28;20602;-94
2022/06/14 09:40:56;;;;;;;9.17;3.30;;;25.20;47.70;;;;;;5054603;28;20211;-94
2022/06/14 09:43:49;;;;;;;8.17;3.03;;;25.40;46.50;;;;;;5051053;28;20203;-94
2022/06/14 09:46:37;;;;;;;8.50;3.80;;;25.40;46.60;;;;;;5071653;28;20207;-93
2022/06/14 09:49:38;;;;;;;7.87;3.07;;;25.60;46.50;;;;;;5077069;28;20211;-93
2022/06/14 09:52:44;;;;;;;4.80;3.00;;;25.70;46.50;;;;;;5072370;28;20202;-94
2022/06/14 09:55:51;;;;;;;9.37;4.20;;;25.80;45.30;;;;;;5068555;28;20668;-95
2022/06/14 09:58:51;;;;;;;10.80;4.67;;;25.90;46.10;;;;;;5066244;28;20625;-94
2022/06/14 10:01:28;;;;;;;11.77;4.97;;;26.10;45.80;;;;;;5063951;28;20226;-94
2022/06/14 10:04:18;;;;;;;8.33;4.33;;;26.20;45.90;;;;;;5054173;28;20195;-94
2022/06/14 10:07:17;;;;;;;7.70;4.33;;;26.30;45.90;;;;;;5068573;28;20199;-95
2022/06/14 10:10:12;;;;;;;6.40;3.43;;;26.40;44.90;;;;;;5067264;28;20332;-94
2022/06/14 10:13:06;;;;;;;6.70;3.10;;;26.40;44.90;;;;;;5070494;28;20253;-94
2022/06/14 10:15:43;;;;;;;7.30;3.83;;;26.50;44.70;;;;;;5068604;28;20207;-93
2022/06/14 10:18:39;;;;;;;6.20;2.80;;;26.60;45.40;;;;;;5070959;28;20259;-96
2022/06/14 10:21:18;;;;;;;8.07;3.47;;;26.70;44.10;;;;;;5070991;28;20203;-96
2022/06/14 10:24:17;;;;;;;8.37;4.07;;;26.80;44.00;;;;;;5053961;28;20208;-94
2022/06/14 10:30:13;;;;;;;6.37;3.53;;;26.90;43.90;;;;;;5073487;28;20348;-96
2022/06/14 10:32:59;;;;;;;8.70;4.17;;;27.00;42.60;;;;;;5070482;28;20223;-94
2022/06/14 10:35:42;;;;;;;7.97;3.87;;;27.10;43.20;;;;;;5070154;28;20211;-96
2022/06/14 10:38:50;;;;;;;9.63;3.93;;;27.10;42.80;;;;;;5066875;28;20702;-96
2022/06/14 10:41:27;;;;;;;8.27;3.77;;;27.20;43.60;;;;;;5069977;28;20237;-96
2022/06/14 10:44:14;;;;;;;8.73;3.60;;;27.30;42.90;;;;;;5078649;28;20191;-96
2022/06/14 10:47:07;;;;;;;7.30;4.43;;;27.40;42.80;;;;;;5080071;28;20203;-96
2022/06/14 10:53:04;;;;;;;7.60;3.70;;;27.60;42.40;;;;;;5050213;28;20207;-96
2022/06/14 10:56:07;;;;;;;6.77;3.50;;;27.70;42.80;;;;;;5074759;28;20207;-95
2022/06/14 10:59:04;;;;;;;8.80;4.27;;;27.80;41.30;;;;;;5064816;28;20213;-96
2022/06/14 11:02:01;;;;;;;11.40;3.80;;;27.90;42.00;;;;;;5074253;28;20643;-96
2022/06/14 11:04:35;;;;;;;7.93;4.50;;;28.00;42.90;;;;;;5062160;28;20207;-92
2022/06/14 11:07:44;;;;;;;8.20;4.10;;;28.10;41.40;;;;;;5072263;28;20241;-93
2022/06/14 11:10:33;;;;;;;7.97;3.63;;;28.20;42.00;;;;;;5072141;28;20593;-93
2022/06/14 11:13:11;;;;;;;11.27;4.70;;;28.20;41.90;;;;;;5068243;28;20195;-93
2022/06/14 11:15:45;;;;;;;7.77;3.87;;;28.30;41.30;;;;;;5069175;28;20784;-94
2022/06/14 11:18:47;;;;;;;7.57;3.60;;;28.30;41.60;;;;;;5073752;28;20602;-94
2022/06/14 11:21:35;;;;;;;5.00;3.27;;;28.40;41.20;;;;;;5071525;28;20669;-96
2022/06/14 11:24:12;;;;;;;7.17;3.93;;;28.40;41.10;;;;;;5070130;28;20203;-96
2022/06/14 11:26:47;;;;;;;8.97;4.23;;;28.40;40.40;;;;;;5074671;28;20211;-95
2022/06/14 11:29:23;;;;;;;8.33;4.40;;;28.50;40.90;;;;;;5070548;28;20215;-96
2022/06/14 11:32:02;;;;;;;7.63;3.47;;;28.50;40.80;;;;;;5070324;28;20227;-94
2022/06/14 11:34:52;;;;;;;9.70;3.93;;;28.50;40.90;;;;;;5074898;28;20291;-95
2022/06/14 11:37:50;;;;;;;8.47;4.30;;;28.50;40.80;;;;;;5074446;28;20203;-95
2022/06/14 11:40:23;;;;;;;4.30;3.00;;;28.50;40.30;;;;;;5070261;28;20634;-96
2022/06/14 11:43:16;;;;;;;6.43;4.27;;;28.60;41.30;;;;;;5057097;28;20204;-94
2022/06/14 11:45:51;;;;;;;5.70;3.27;;;28.60;40.50;;;;;;5074753;28;20199;-95
2022/06/14 11:48:27;;;;;;;9.90;4.00;;;28.70;41.30;;;;;;5064454;28;20207;-96
2022/06/14 11:51:09;;;;;;;6.97;3.10;;;28.70;41.10;;;;;;5088701;28;20694;-96
2022/06/14 11:54:08;;;;;;;7.77;4.57;;;28.80;41.10;;;;;;5064913;28;20200;-95
2022/06/14 11:56:53;;;;;;;9.03;3.90;;;29.00;40.80;;;;;;5087073;28;20256;-95
2022/06/14 11:59:35;;;;;;;4.90;3.40;;;29.10;40.90;;;;;;5094723;28;20194;-94
2022/06/14 12:02:20;;;;;;;6.73;3.87;;;29.20;41.10;;;;;;5077588;28;20295;-95
2022/06/14 12:05:01;;;;;;;11.50;5.20;;;29.30;40.30;;;;;;5055294;28;20362;-93
2022/06/14 12:07:36;;;;;;;7.40;3.90;;;29.40;39.90;;;;;;5076080;28;20227;-96
2022/06/14 12:10:44;;;;;;;8.63;4.67;;;29.50;39.80;;;;;;5071532;28;20230;-96
2022/06/14 12:13:39;;;;;;;11.53;5.13;;;29.60;39.50;;;;;;5071697;28;20246;-92
2022/06/14 12:16:14;;;;;;;10.10;5.13;;;29.60;39.50;;;;;;5092152;28;20215;-96
2022/06/14 12:18:55;;;;;;;8.73;3.88;;;29.80;39.70;;;;;;5086306;28;20195;-96
2022/06/14 12:21:35;;;;;;;5.50;3.53;;;29.80;38.80;;;;;;5058336;28;20212;-96
2022/06/14 12:24:09;;;;;;;4.35;2.80;;;29.90;39.40;;;;;;5073730;28;20203;-95
2022/06/14 12:26:55;;;;;;;11.52;5.07;;;30.00;39.30;;;;;;5074828;28;20199;-96
2022/06/14 12:29:25;;;;;;;7.65;3.55;;;30.00;38.40;;;;;;5062674;28;20215;-96
2022/06/14 12:32:05;;;;;;;10.23;4.78;;;30.20;38.30;;;;;;5074242;28;20235;-96
2022/06/14 12:34:37;;;;;;;6.75;3.50;;;30.20;37.80;;;;;;5074366;28;20272;-96
2022/06/14 12:37:26;;;;;;;6.05;3.80;;;30.30;38.50;;;;;;5075435;28;20257;-95
2022/06/14 12:40:00;;;;;;;7.60;4.17;;;30.30;37.50;;;;;;5073602;28;20249;-96
2022/06/14 12:42:39;;;;;;;5.85;3.20;;;30.40;38.20;;;;;;5074340;28;20202;-96
2022/06/14 12:45:12;;;;;;;6.05;3.38;;;30.50;38.00;;;;;;5069180;28;20195;-96
2022/06/14 12:48:00;;;;;;;7.10;3.75;;;30.50;37.60;;;;;;5074822;28;20204;-96
2022/06/14 12:50:35;;;;;;;7.88;4.65;;;30.60;37.70;;;;;;5075069;28;20226;-95
2022/06/14 12:53:15;;;;;;;4.25;2.70;;;30.60;37.80;;;;;;5083145;28;20203;-96
2022/06/14 12:55:57;;;;;;;8.00;3.88;;;30.80;37.80;;;;;;5081013;28;20257;-96
2022/06/14 12:58:34;;;;;;;6.45;3.45;;;30.90;38.10;;;;;;5067444;28;20302;-95
2022/06/14 13:01:10;;;;;;;9.32;4.65;;;30.90;37.70;;;;;;5070790;28;20209;-96
2022/06/14 13:03:46;;;;;;;7.63;3.90;;;31.00;36.90;;;;;;5070631;28;20274;-96
2022/06/14 13:06:50;;;;;;;11.90;4.47;;;31.10;36.60;;;;;;5069503;28;20200;-94
2022/06/14 13:09:31;;;;;;;6.80;3.33;;;31.20;36.30;;;;;;5071417;28;20209;-96
2022/06/14 13:12:12;;;;;;;8.15;4.28;;;31.20;36.00;;;;;;5074961;28;20299;-94
2022/06/14 13:14:50;;;;;;;9.45;4.10;;;31.30;36.80;;;;;;5070830;28;20288;-94
2022/06/14 13:17:34;;;;;;;5.72;3.25;;;31.30;36.60;;;;;;5070850;28;20203;-96
2022/06/14 13:20:14;;;;;;;8.02;4.30;;;31.30;37.00;;;;;;5067299;28;20207;-96
2022/06/14 13:22:56;;;;;;;9.95;4.60;;;31.40;36.40;;;;;;5070791;28;20199;-96
2022/06/14 13:25:42;;;;;;;11.32;4.57;;;31.50;36.80;;;;;;5069595;28;20807;-95
2022/06/14 13:28:23;;;;;;;13.73;6.15;;;31.50;35.80;;;;;;5071629;28;20202;-95
2022/06/14 13:31:04;;;;;;;7.22;3.63;;;31.60;35.90;;;;;;5064470;28;20219;-96
2022/06/14 13:33:47;;;;;;;5.40;3.33;;;31.60;36.30;;;;;;5069192;28;20609;-96
2022/06/14 13:36:24;;;;;;;7.30;3.83;;;31.60;35.60;;;;;;5070559;28;20219;-93
2022/06/14 13:38:56;;;;;;;7.28;3.83;;;31.60;36.10;;;;;;5070190;28;20199;-96
2022/06/14 13:41:36;;;;;;;9.00;4.32;;;31.70;36.30;;;;;;5075637;28;20719;-94
2022/06/14 13:44:08;;;;;;;7.95;3.85;;;31.70;35.30;;;;;;5069265;28;20601;-96
2022/06/14 13:46:43;;;;;;;8.02;3.10;;;31.80;34.60;;;;;;5069098;28;20594;-94
2022/06/14 13:49:17;;;;;;;12.90;5.88;;;31.80;35.00;;;;;;5072341;28;20203;-95
2022/06/14 13:51:52;;;;;;;8.25;3.28;;;31.80;35.60;;;;;;5069993;28;20235;-94
2022/06/14 13:54:34;;;;;;;5.40;3.28;;;31.80;35.30;;;;;;5070891;28;20207;-95
2022/06/14 13:57:15;;;;;;;8.65;4.75;;;31.80;35.70;;;;;;5069504;28;20210;-93
2022/06/14 13:59:48;;;;;;;8.90;3.67;;;31.90;35.90;;;;;;5068957;28;20652;-94
2022/06/14 14:02:22;;;;;;;5.45;3.00;;;31.90;36.60;;;;;;5073278;28;20253;-94
2022/06/14 14:04:56;;;;;;;9.60;3.70;;;32.00;36.10;;;;;;5065495;28;20253;-94